Terminal Aerodrome Forecast
Issued by NWS

Home | Current Version | Previous Version | Text Only | Print | Product List | Glossary On
Versions: 1 2 3 4 5 6 7 8 9 10 11 12 13 14 15 16 17 18 19 20 21 22 23 24 25 26 27
000
FTUS41 KBTV 240552
TAFPBG
TAF
KPBG 240552Z 2406/2506 16014KT P6SM BKN090
     FM241000 16010KT 5SM -RA OVC035 WS020/18040KT
     FM241700 17008KT P6SM BKN030
     FM241800 17008KT P6SM SCT030 BKN250
     FM250000 18012KT P6SM SCT080
     FM250200 18012G23KT P6SM FEW070=

USA.gov is the U.S. government's official web portal to all federal, state and local government web resources and services.